Time,TemperatureF,DewpointF,PressureIn,WindDirection,WindDirectionDegrees,WindSpeedMPH,WindSpeedGustMPH,Humidity,HourlyPrecipIn,Conditions,Clouds,dailyrainin,SoftwareType,DateUTC
2013-03-06 00:04:00,34.3,26.9,29.95,NW,308,0.0,0.0,74,0.00,,OVC095,-99.99,VWS V12.07,2013-03-06 05:04:00,
2013-03-06 00:12:00,34.1,26.7,29.95,NW,308,0.0,0.0,74,0.00,,OVC095,-99.99,VWS V12.07,2013-03-06 05:12:00,
2013-03-06 00:22:00,34.0,26.9,29.95,NW,308,0.0,0.0,75,0.00,,OVC095,-99.99,VWS V12.07,2013-03-06 05:22:00,
2013-03-06 00:34:00,33.8,26.7,29.95,SSW,209,1.0,2.0,75,0.00,,OVC095,-99.99,VWS V12.07,2013-03-06 05:34:00,
2013-03-06 00:42:00,33.8,27.0,29.95,WSW,251,0.0,2.0,76,0.00,,OVC095,-99.99,VWS V12.07,2013-03-06 05:42:00,
2013-03-06 00:52:00,33.7,27.3,29.95,SSW,200,0.0,2.0,77,0.00,,OVC095,-99.99,VWS V12.07,2013-03-06 05:52:00,
2013-03-06 01:03:00,33.5,26.8,29.95,SSW,200,0.0,0.0,76,0.00,,OVC095,-99.99,VWS V12.07,2013-03-06 06:03:00,
2013-03-06 01:12:00,33.4,27.0,29.95,SSW,200,0.0,1.0,77,0.00,,OVC095,-99.99,VWS V12.07,2013-03-06 06:12:00,
2013-03-06 01:22:00,33.4,27.0,29.96,SSW,206,0.0,1.0,77,0.00,,OVC095,-99.99,VWS V12.07,2013-03-06 06:22:00,
2013-03-06 01:33:00,33.2,26.8,29.96,NW,312,0.0,0.0,77,0.00,,OVC095,-99.99,VWS V12.07,2013-03-06 06:33:00,
2013-03-06 01:42:00,33.1,26.7,29.96,NW,312,0.0,0.0,77,0.00,,OVC095,-99.99,VWS V12.07,2013-03-06 06:42:00,
2013-03-06 01:52:00,33.1,27.0,29.95,NW,312,0.0,0.0,78,0.00,,OVC095,-99.99,VWS V12.07,2013-03-06 06:52:00,
2013-03-06 02:04:00,32.8,26.7,29.95,NW,312,0.0,0.0,78,0.00,,OVC095,-99.99,VWS V12.07,2013-03-06 07:04:00,
2013-03-06 02:12:00,32.8,26.7,29.95,WNW,289,0.0,0.0,78,0.00,,OVC095,-99.99,VWS V12.07,2013-03-06 07:12:00,
2013-03-06 02:22:00,32.7,26.9,29.94,WNW,289,0.0,0.0,79,0.00,,OVC095,-99.99,VWS V12.07,2013-03-06 07:22:00,
2013-03-06 02:33:00,32.5,26.7,29.94,NNW,330,0.0,0.0,79,0.00,,OVC095,-99.99,VWS V12.07,2013-03-06 07:33:00,
2013-03-06 02:42:00,32.5,26.7,29.94,NNW,330,0.0,0.0,79,0.00,,OVC095,-99.99,VWS V12.07,2013-03-06 07:42:00,
2013-03-06 02:52:00,32.4,26.6,29.94,West,271,0.0,2.0,79,0.00,,OVC095,-99.99,VWS V12.07,2013-03-06 07:52:00,
2013-03-06 03:03:00,32.4,26.6,29.93,West,274,0.0,0.0,79,0.00,,OVC095,-99.99,VWS V12.07,2013-03-06 08:03:00,
2013-03-06 03:12:00,32.4,26.6,29.93,West,274,0.0,1.0,79,0.00,,OVC095,-99.99,VWS V12.07,2013-03-06 08:12:00,
2013-03-06 03:22:00,32.2,26.4,29.93,West,274,0.0,1.0,79,0.00,,OVC095,-99.99,VWS V12.07,2013-03-06 08:22:00,
2013-03-06 03:33:00,32.2,26.7,29.93,West,274,0.0,1.0,80,0.00,,OVC095,-99.99,VWS V12.07,2013-03-06 08:33:00,
2013-03-06 03:42:00,32.1,26.6,29.93,West,274,0.0,1.0,80,0.00,,OVC095,-99.99,VWS V12.07,2013-03-06 08:42:00,
2013-03-06 03:52:00,32.1,26.6,29.93,West,274,0.0,1.0,80,0.00,,OVC095,-99.99,VWS V12.07,2013-03-06 08:52:00,
2013-03-06 04:04:00,31.9,26.4,29.93,West,274,0.0,0.0,80,0.00,,OVC095,-99.99,VWS V12.07,2013-03-06 09:04:00,
2013-03-06 04:12:00,31.8,26.6,29.93,NW,326,0.0,0.0,81,0.00,,OVC095,-99.99,VWS V12.07,2013-03-06 09:12:00,
2013-03-06 04:22:00,31.8,26.6,29.93,NW,326,0.0,0.0,81,0.00,,OVC095,-99.99,VWS V12.07,2013-03-06 09:22:00,
2013-03-06 04:33:00,31.6,26.5,29.93,NW,326,0.0,0.0,81,0.00,,OVC095,-99.99,VWS V12.07,2013-03-06 09:33:00,
2013-03-06 04:42:00,31.6,26.5,29.93,NW,326,0.0,0.0,81,0.00,,OVC095,-99.99,VWS V12.07,2013-03-06 09:42:00,
2013-03-06 04:52:00,31.5,26.4,29.93,NW,326,0.0,0.0,81,0.00,,OVC095,-99.99,VWS V12.07,2013-03-06 09:52:00,
2013-03-06 05:03:00,31.5,26.6,29.93,NW,326,0.0,0.0,82,0.00,,OVC095,-99.99,VWS V12.07,2013-03-06 10:03:00,
2013-03-06 05:12:00,31.5,26.6,29.93,NNW,332,0.0,2.0,82,0.00,,OVC095,-99.99,VWS V12.07,2013-03-06 10:12:00,
2013-03-06 05:22:00,31.5,26.6,29.93,NNW,332,0.0,2.0,82,0.00,,OVC095,-99.99,VWS V12.07,2013-03-06 10:22:00,
2013-03-06 05:33:00,31.5,26.6,29.93,WNW,296,0.0,1.0,82,0.00,,OVC095,-99.99,VWS V12.07,2013-03-06 10:33:00,
2013-03-06 05:42:00,31.5,26.9,29.93,WNW,296,0.0,2.0,83,0.00,,OVC095,-99.99,VWS V12.07,2013-03-06 10:42:00,
2013-03-06 05:52:00,31.3,26.8,29.93,WNW,296,0.0,2.0,83,0.00,,OVC095,-99.99,VWS V12.07,2013-03-06 10:52:00,
2013-03-06 06:04:00,31.5,26.9,29.93,WNW,296,0.0,0.0,83,0.00,,OVC095,-99.99,VWS V12.07,2013-03-06 11:04:00,
2013-03-06 06:12:00,31.5,26.9,29.93,West,281,2.0,2.0,83,0.00,,OVC095,-99.99,VWS V12.07,2013-03-06 11:12:00,
2013-03-06 06:22:00,31.8,27.5,29.93,North,4,1.0,2.0,84,0.00,,OVC095,-99.99,VWS V12.07,2013-03-06 11:22:00,
2013-03-06 06:33:00,31.8,27.5,29.93,NNW,328,0.0,0.0,84,0.00,,OVC095,-99.99,VWS V12.07,2013-03-06 11:33:00,
2013-03-06 06:42:00,31.9,27.6,29.93,NNW,332,0.0,2.0,84,0.00,,OVC095,-99.99,VWS V12.07,2013-03-06 11:42:00,
2013-03-06 06:52:00,32.1,27.8,29.93,NNE,13,0.0,2.0,84,0.00,,OVC095,-99.99,VWS V12.07,2013-03-06 11:52:00,
2013-03-06 07:04:00,32.2,27.9,29.93,WNW,302,1.0,2.0,84,0.00,,OVC095,-99.99,VWS V12.07,2013-03-06 12:04:00,
2013-03-06 07:12:00,32.4,28.1,29.93,North,0,0.0,2.0,84,0.00,,OVC095,-99.99,VWS V12.07,2013-03-06 12:12:00,
2013-03-06 07:22:00,32.5,28.2,29.93,NNW,332,0.0,2.0,84,0.00,,OVC095,-99.99,VWS V12.07,2013-03-06 12:22:00,
2013-03-06 07:33:00,32.8,28.2,29.93,NNW,335,0.0,1.0,83,0.00,,OVC095,-99.99,VWS V12.07,2013-03-06 12:33:00,
2013-03-06 07:42:00,32.9,28.3,29.93,WNW,295,0.0,1.0,83,0.00,,OVC095,-99.99,VWS V12.07,2013-03-06 12:42:00,
2013-03-06 07:52:00,33.2,28.6,29.93,WNW,291,1.0,2.0,83,0.00,,OVC095,-99.99,VWS V12.07,2013-03-06 12:52:00,
2013-03-06 08:04:00,33.5,28.9,29.93,NW,313,0.0,0.0,83,0.00,,OVC095,-99.99,VWS V12.07,2013-03-06 13:04:00,
2013-03-06 08:12:00,33.8,29.2,29.93,WNW,285,1.0,2.0,83,0.00,,OVC095,-99.99,VWS V12.07,2013-03-06 13:12:00,
2013-03-06 08:22:00,34.3,29.7,29.93,West,271,0.0,2.0,83,0.00,,OVC095,-99.99,VWS V12.07,2013-03-06 13:22:00,
2013-03-06 08:33:00,34.4,29.5,29.94,WSW,250,1.0,6.0,82,0.00,,OVC095,-99.99,VWS V12.07,2013-03-06 13:33:00,
2013-03-06 08:42:00,34.6,29.7,29.94,West,264,0.0,6.0,82,0.00,,OVC095,-99.99,VWS V12.07,2013-03-06 13:42:00,
2013-03-06 08:52:00,34.7,29.8,29.94,NW,305,0.0,6.0,82,0.00,,OVC095,-99.99,VWS V12.07,2013-03-06 13:52:00,
2013-03-06 09:03:00,35.0,30.1,29.94,West,263,0.0,3.0,82,0.00,,OVC095,-99.99,VWS V12.07,2013-03-06 14:03:00,
2013-03-06 09:12:00,35.5,30.3,29.94,SSE,158,0.0,4.0,81,0.00,,OVC095,-99.99,VWS V12.07,2013-03-06 14:12:00,
2013-03-06 09:22:00,35.6,30.4,29.94,WNW,282,0.0,4.0,81,0.00,,OVC095,-99.99,VWS V12.07,2013-03-06 14:22:00,
2013-03-06 09:33:00,35.9,31.0,29.94,West,272,0.0,2.0,82,0.00,,OVC095,-99.99,VWS V12.07,2013-03-06 14:33:00,
2013-03-06 09:42:00,36.3,31.3,29.94,West,272,1.0,2.0,82,0.00,,OVC095,-99.99,VWS V12.07,2013-03-06 14:42:00,
2013-03-06 09:52:00,36.8,31.8,29.93,WNW,298,0.0,2.0,82,0.00,,OVC095,-99.99,VWS V12.07,2013-03-06 14:52:00,
2013-03-06 10:04:00,37.0,32.0,29.93,West,271,2.0,2.0,82,0.00,,OVC095,-99.99,VWS V12.07,2013-03-06 15:04:00,
2013-03-06 10:12:00,37.2,32.2,29.93,WNW,284,2.0,2.0,82,0.00,,OVC095,-99.99,VWS V12.07,2013-03-06 15:12:00,
2013-03-06 10:22:00,37.2,32.2,29.93,WNW,284,2.0,2.0,82,0.00,,OVC095,-99.99,VWS V12.07,2013-03-06 15:22:00,
2013-03-06 10:34:00,37.2,32.2,29.93,WNW,284,2.0,2.0,82,0.00,,OVC095,-99.99,VWS V12.07,2013-03-06 15:34:00,
2013-03-06 10:42:00,37.2,32.2,29.93,WNW,284,2.0,2.0,82,0.00,,OVC095,-99.99,VWS V12.07,2013-03-06 15:42:00,
2013-03-06 10:52:00,37.2,32.2,29.92,WNW,284,2.0,2.0,82,0.00,,OVC095,-99.99,VWS V12.07,2013-03-06 15:52:00,
2013-03-06 11:04:00,37.2,32.2,29.93,WNW,284,2.0,2.0,82,0.00,,OVC095,-99.99,VWS V12.07,2013-03-06 16:04:00,
2013-03-06 11:12:00,37.2,32.2,29.93,WNW,284,2.0,2.0,82,0.00,,OVC095,-99.99,VWS V12.07,2013-03-06 16:12:00,
2013-03-06 11:22:00,37.2,32.2,29.93,WNW,284,2.0,2.0,82,0.00,,OVC095,-99.99,VWS V12.07,2013-03-06 16:22:00,
2013-03-06 11:33:00,37.2,32.2,29.93,WNW,284,2.0,2.0,82,0.00,,OVC095,-99.99,VWS V12.07,2013-03-06 16:33:00,
2013-03-06 11:42:00,37.2,32.2,29.93,WNW,284,2.0,2.0,82,0.00,,OVC095,-99.99,VWS V12.07,2013-03-06 16:42:00,
2013-03-06 11:52:00,41.1,35.1,29.92,WNW,287,2.0,3.0,79,0.00,,OVC095,-99.99,VWS V12.07,2013-03-06 16:52:00,
2013-03-06 12:04:00,42.6,34.2,29.92,West,263,0.0,4.0,72,0.00,,OVC095,-99.99,VWS V12.07,2013-03-06 17:04:00,
2013-03-06 12:12:00,44.5,33.5,29.92,NNW,346,2.0,4.0,65,0.00,,OVC095,-99.99,VWS V12.07,2013-03-06 17:12:00,
2013-03-06 12:22:00,43.9,34.0,29.91,NNW,339,0.0,4.0,68,0.00,,OVC095,-99.99,VWS V12.07,2013-03-06 17:22:00,
2013-03-06 12:34:00,44.9,32.7,29.91,West,263,3.0,5.0,62,0.00,,OVC095,-99.99,VWS V12.07,2013-03-06 17:34:00,
2013-03-06 12:42:00,45.2,32.2,29.91,North,0,2.0,7.0,60,0.00,,OVC095,-99.99,VWS V12.07,2013-03-06 17:42:00,
2013-03-06 12:52:00,45.5,32.8,29.91,NW,306,1.0,7.0,61,0.00,,OVC095,-99.99,VWS V12.07,2013-03-06 17:52:00,
2013-03-06 13:03:00,45.4,30.6,29.90,WNW,285,0.0,6.0,56,0.00,,OVC095,-99.99,VWS V12.07,2013-03-06 18:03:00,
2013-03-06 13:12:00,45.8,31.9,29.90,NNW,337,2.0,6.0,58,0.00,,OVC095,-99.99,VWS V12.07,2013-03-06 18:12:00,
2013-03-06 13:22:00,44.9,32.3,29.90,South,172,0.0,6.0,61,0.00,,OVC095,-99.99,VWS V12.07,2013-03-06 18:22:00,
2013-03-06 13:33:00,44.2,31.6,29.91,North,0,2.0,3.0,61,0.00,,OVC095,-99.99,VWS V12.07,2013-03-06 18:33:00,
2013-03-06 13:42:00,43.6,31.0,29.91,NW,306,0.0,3.0,61,0.00,,OVC095,-99.99,VWS V12.07,2013-03-06 18:42:00,
2013-03-06 13:52:00,43.3,30.4,29.91,North,0,0.0,8.0,60,0.00,,OVC095,-99.99,VWS V12.07,2013-03-06 18:52:00,
2013-03-06 14:04:00,43.5,31.0,29.91,NW,319,0.0,3.0,61,0.00,,OVC095,-99.99,VWS V12.07,2013-03-06 19:04:00,
2013-03-06 14:12:00,43.6,31.5,29.91,NW,312,0.0,5.0,62,0.00,,OVC095,-99.99,VWS V12.07,2013-03-06 19:12:00,
2013-03-06 14:22:00,43.3,32.3,29.91,WNW,291,0.0,5.0,65,0.00,,OVC095,-99.99,VWS V12.07,2013-03-06 19:22:00,
2013-03-06 14:34:00,43.1,32.5,29.91,West,277,1.0,2.0,66,0.00,,OVC095,-99.99,VWS V12.07,2013-03-06 19:34:00,
2013-03-06 14:42:00,42.9,32.0,29.91,North,4,1.0,5.0,65,0.00,,OVC095,-99.99,VWS V12.07,2013-03-06 19:42:00,
2013-03-06 14:52:00,42.8,32.6,29.92,NNW,340,2.0,5.0,67,0.00,,OVC095,-99.99,VWS V12.07,2013-03-06 19:52:00,
2013-03-06 15:04:00,43.1,31.8,29.92,NW,309,1.0,5.0,64,0.00,,OVC095,-99.99,VWS V12.07,2013-03-06 20:04:00,
2013-03-06 15:12:00,43.1,30.6,29.92,North,352,2.0,5.0,61,0.00,,OVC095,-99.99,VWS V12.07,2013-03-06 20:12:00,
2013-03-06 15:22:00,42.8,29.5,29.92,SE,145,0.0,5.0,59,0.00,,OVC095,-99.99,VWS V12.07,2013-03-06 20:22:00,
2013-03-06 15:33:00,42.1,31.2,29.92,North,352,5.0,5.0,65,0.00,,OVC095,-99.99,VWS V12.07,2013-03-06 20:33:00,
2013-03-06 15:42:00,41.6,31.5,29.92,SW,227,0.0,5.0,67,0.00,,OVC095,-99.99,VWS V12.07,2013-03-06 20:42:00,
2013-03-06 15:52:00,40.9,31.5,29.93,NW,311,1.0,5.0,69,0.00,,OVC095,-99.99,VWS V12.07,2013-03-06 20:52:00,
2013-03-06 16:04:00,40.9,31.2,29.93,NNW,337,1.0,5.0,68,0.00,,OVC095,-99.99,VWS V12.07,2013-03-06 21:04:00,
2013-03-06 16:12:00,40.8,31.1,29.93,West,271,3.0,5.0,68,0.00,,OVC095,-99.99,VWS V12.07,2013-03-06 21:12:00,
2013-03-06 16:22:00,40.6,30.9,29.93,WNW,291,0.0,5.0,68,0.00,,OVC095,-99.99,VWS V12.07,2013-03-06 21:22:00,
2013-03-06 16:34:00,40.5,29.7,29.93,NNW,333,0.0,3.0,65,0.00,,OVC095,-99.99,VWS V12.07,2013-03-06 21:34:00,
2013-03-06 16:42:00,40.8,29.2,29.93,SSW,198,1.0,5.0,63,0.00,,OVC095,-99.99,VWS V12.07,2013-03-06 21:42:00,
2013-03-06 16:52:00,40.6,28.6,29.93,WNW,289,1.0,5.0,62,0.00,,OVC095,-99.99,VWS V12.07,2013-03-06 21:52:00,
2013-03-06 17:04:00,40.6,28.6,29.94,North,349,0.0,4.0,62,0.00,,OVC095,-99.99,VWS V12.07,2013-03-06 22:04:00,
2013-03-06 17:12:00,40.6,28.6,29.94,NW,323,0.0,4.0,62,0.00,,OVC095,-99.99,VWS V12.07,2013-03-06 22:12:00,
2013-03-06 17:22:00,40.5,28.5,29.95,WNW,284,3.0,4.0,62,0.00,,OVC095,-99.99,VWS V12.07,2013-03-06 22:22:00,
2013-03-06 17:32:00,40.5,28.1,29.96,North,352,0.0,3.0,61,0.00,,OVC095,-99.99,VWS V12.07,2013-03-06 22:32:00,
2013-03-06 17:42:00,40.6,28.2,29.96,SW,236,0.0,3.0,61,0.00,,OVC095,-99.99,VWS V12.07,2013-03-06 22:42:00,
2013-03-06 17:52:00,40.2,27.8,29.96,WNW,295,1.0,6.0,61,0.00,,OVC095,-99.99,VWS V12.07,2013-03-06 22:52:00,
2013-03-06 18:04:00,40.1,28.1,29.97,NNW,336,0.0,3.0,62,0.00,,OVC095,-99.99,VWS V12.07,2013-03-06 23:04:00,
2013-03-06 18:12:00,39.9,28.3,29.97,West,261,2.0,3.0,63,0.00,,OVC095,-99.99,VWS V12.07,2013-03-06 23:12:00,
2013-03-06 18:22:00,39.9,28.3,29.97,NNW,328,2.0,5.0,63,0.00,,OVC095,-99.99,VWS V12.07,2013-03-06 23:22:00,
2013-03-06 18:34:00,39.6,28.4,29.98,WSW,246,3.0,4.0,64,0.00,,OVC095,-99.99,VWS V12.07,2013-03-06 23:34:00,
2013-03-06 18:42:00,39.3,28.2,29.98,NNW,342,2.0,5.0,64,0.00,,OVC095,-99.99,VWS V12.07,2013-03-06 23:42:00,
2013-03-06 18:52:00,39.1,28.3,29.99,WNW,289,1.0,5.0,65,0.00,,OVC095,-99.99,VWS V12.07,2013-03-06 23:52:00,
2013-03-06 19:03:00,38.9,28.1,29.99,NW,305,4.0,4.0,65,0.00,,OVC095,-99.99,VWS V12.07,2013-03-07 00:03:00,
2013-03-06 19:12:00,38.8,28.1,29.99,West,270,2.0,4.0,65,0.00,,OVC095,-99.99,VWS V12.07,2013-03-07 00:12:00,
2013-03-06 19:22:00,38.8,27.3,29.99,NE,34,1.0,8.0,63,0.00,,OVC095,-99.99,VWS V12.07,2013-03-07 00:22:00,
2013-03-06 19:33:00,38.8,26.9,29.99,West,280,3.0,3.0,62,0.00,,OVC095,-99.99,VWS V12.07,2013-03-07 00:33:00,
2013-03-06 19:42:00,38.6,26.7,29.99,NW,320,1.0,3.0,62,0.00,,OVC095,-99.99,VWS V12.07,2013-03-07 00:42:00,
2013-03-06 19:52:00,38.6,26.7,29.99,NW,315,0.0,3.0,62,0.00,,OVC095,-99.99,VWS V12.07,2013-03-07 00:52:00,
2013-03-06 20:04:00,38.2,27.5,29.99,NW,311,1.0,3.0,65,0.00,,OVC095,-99.99,VWS V12.07,2013-03-07 01:04:00,
2013-03-06 20:12:00,38.2,27.1,29.99,NW,311,0.0,3.0,64,0.00,,OVC095,-99.99,VWS V12.07,2013-03-07 01:12:00,
2013-03-06 20:22:00,37.9,27.2,29.99,WSW,248,0.0,3.0,65,0.00,,OVC095,-99.99,VWS V12.07,2013-03-07 01:22:00,
2013-03-06 20:33:00,37.9,27.2,29.99,NW,316,0.0,1.0,65,0.00,,OVC095,-99.99,VWS V12.07,2013-03-07 01:33:00,
2013-03-06 20:42:00,37.9,26.5,29.99,NW,326,0.0,3.0,63,0.00,,OVC095,-99.99,VWS V12.07,2013-03-07 01:42:00,
2013-03-06 20:52:00,37.9,26.5,29.99,NW,315,1.0,3.0,63,0.00,,OVC095,-99.99,VWS V12.07,2013-03-07 01:52:00,
2013-03-06 21:03:00,37.9,26.5,29.99,WSW,251,0.0,1.0,63,0.00,,OVC095,-99.99,VWS V12.07,2013-03-07 02:03:00,
2013-03-06 21:12:00,37.8,26.4,29.99,NNE,21,2.0,2.0,63,0.00,,OVC095,-99.99,VWS V12.07,2013-03-07 02:12:00,
2013-03-06 21:22:00,37.9,26.5,29.98,West,272,2.0,5.0,63,0.00,,OVC095,-99.99,VWS V12.07,2013-03-07 02:22:00,
2013-03-06 21:33:00,37.8,26.0,29.98,NW,312,0.0,5.0,62,0.00,,OVC095,-99.99,VWS V12.07,2013-03-07 02:33:00,
2013-03-06 21:42:00,37.8,26.4,29.98,NNW,332,1.0,5.0,63,0.00,,OVC095,-99.99,VWS V12.07,2013-03-07 02:42:00,
2013-03-06 21:52:00,37.8,26.4,29.98,NW,322,2.0,5.0,63,0.00,,OVC095,-99.99,VWS V12.07,2013-03-07 02:52:00,
2013-03-06 22:04:00,37.6,26.5,29.98,WNW,291,1.0,2.0,64,0.00,,OVC095,-99.99,VWS V12.07,2013-03-07 03:04:00,
2013-03-06 22:12:00,37.5,26.5,29.98,NW,326,1.0,2.0,64,0.00,,OVC095,-99.99,VWS V12.07,2013-03-07 03:12:00,
2013-03-06 22:22:00,37.3,26.3,29.98,NNW,340,2.0,3.0,64,0.00,,OVC095,-99.99,VWS V12.07,2013-03-07 03:22:00,
2013-03-06 22:34:00,37.3,26.3,29.99,West,281,2.0,3.0,64,0.00,,OVC095,-99.99,VWS V12.07,2013-03-07 03:34:00,
2013-03-06 22:42:00,37.3,26.3,29.99,NW,325,0.0,3.0,64,0.00,,OVC095,-99.99,VWS V12.07,2013-03-07 03:42:00,
2013-03-06 22:52:00,37.2,26.2,29.98,WNW,292,2.0,3.0,64,0.00,,OVC095,-99.99,VWS V12.07,2013-03-07 03:52:00,
2013-03-06 23:03:00,37.2,26.2,29.98,WSW,248,2.0,5.0,64,0.00,,OVC095,-99.99,VWS V12.07,2013-03-07 04:03:00,
2013-03-06 23:12:00,37.2,26.5,29.98,West,263,2.0,5.0,65,0.00,,OVC095,-99.99,VWS V12.07,2013-03-07 04:12:00,
2013-03-06 23:22:00,37.2,26.2,29.98,West,265,1.0,5.0,64,0.00,,OVC095,-99.99,VWS V12.07,2013-03-07 04:22:00,
2013-03-06 23:33:00,37.2,26.2,29.98,NW,315,2.0,2.0,64,0.00,,OVC095,-99.99,VWS V12.07,2013-03-07 04:33:00,
2013-03-06 23:42:00,37.2,26.2,29.98,NW,315,2.0,2.0,64,0.00,,OVC095,-99.99,VWS V12.07,2013-03-07 04:42:00,
2013-03-06 23:52:00,37.2,26.2,29.98,NW,315,2.0,2.0,64,0.00,,OVC095,-99.99,VWS V12.07,2013-03-07 04:52:00,